Date,TemperatureHighF,TemperatureAvgF,TemperatureLowF,DewpointHighF,DewpointAvgF,DewpointLowF,HumidityHigh,HumidityAvg,HumidityLow,PressureMaxIn,PressureMinIn,WindSpeedMaxMPH,WindSpeedAvgMPH,GustSpeedMaxMPH,PrecipitationSumIn
2013-11-1,52.2,43.7,37.9,39.8,38.5,36.5,99,83,55,29.85,29.44,23,14,24,0.00
2013-11-2,49.6,41.3,33.6,37.3,33.6,30.9,99,76,51,30.09,29.85,15,9,21,0.00
2013-11-3,52.3,43.9,32.5,34.6,31.5,28.1,84,63,44,30.11,29.87,52,32,53,10.03
2013-11-4,48.4,44.1,36.9,45.1,38.6,33.5,94,81,61,30.15,29.87,41,18,49,0.13
2013-11-5,42.8,37.6,33.4,40.1,34.5,29.6,99,89,75,30.19,29.86,29,13,34,0.34
2013-11-6,33.6,32.7,32.4,33.4,32.1,32.0,99,97,97,30.19,29.89,34,27,35,0.00
2013-11-7,32.7,32.7,32.7,32.0,32.0,32.0,97,97,97,30.24,30.15,27,27,27,0.00
2013-11-8,32.7,32.7,32.7,32.0,32.0,32.0,97,97,97,30.20,29.69,27,27,27,0.00
2013-11-9,44.4,41.4,32.7,35.2,34.4,32.0,97,77,70,30.22,29.70,27,17,27,0.00
2013-11-10,44.4,40.6,36.9,35.2,30.5,27.2,73,67,58,30.33,30.08,22,13,27,0.01
2013-11-11,40.6,24.7,13.1,31.1,17.1,5.5,97,73,62,30.66,30.06,28,16,33,0.00
2013-11-12,24.3,15.8,5.7,9.1,6.5,1.5,82,66,48,30.74,30.46,20,10,20,0.00
2013-11-13,48.9,32.2,20.3,29.5,17.1,7.3,58,54,45,30.45,29.93,46,30,48,0.18
2013-11-14,45.1,38.3,31.5,36.1,28.7,21.8,87,68,57,29.93,29.81,24,12,28,0.00
2013-11-15,55.2,42.7,33.8,40.7,35.0,31.3,92,75,58,29.87,29.69,26,12,28,1.39
2013-11-16,58.6,46.7,37.6,56.8,43.5,31.5,99,89,69,29.69,29.25,34,22,36,0.02
2013-11-17,45.7,40.2,33.3,41.1,36.1,29.4,99,86,67,29.86,29.35,42,18,42,0.25
2013-11-18,36.1,31.8,27.5,29.5,25.6,23.7,87,78,66,30.24,29.86,35,17,44,0.22
2013-11-19,42.6,34.2,23.7,34.1,28.6,21.8,92,80,67,30.24,29.96,40,26,43,0.22
2013-11-20,39.6,36.8,34.7,35.5,32.4,28.1,99,85,66,30.00,29.89,38,24,45,0.06
2013-11-21,36.3,28.2,22.5,36.1,27.6,20.5,99,98,90,30.42,30.01,25,14,29,0.06
2013-11-22,29.5,21.4,12.2,20.6,12.0,6.8,93,68,40,30.56,30.43,24,11,32,0.00
2013-11-23,16.5,9.9,4.6,6.5,-0.2,-2.7,75,63,49,30.76,30.52,25,12,29,0.02
2013-11-24,24.1,15.4,5.0,8.6,2.8,-3.1,71,58,41,30.67,30.09,53,23,67,0.06
2013-11-25,41.7,31.3,22.6,26.8,18.9,8.5,74,60,51,30.09,29.97,43,20,50,0.04
2013-11-26,32.2,19.7,11.8,19.7,4.9,-3.9,67,52,35,30.30,30.06,32,20,36,0.86
2013-11-27,22.8,15.4,5.9,7.7,3.7,0.0,77,60,41,30.32,30.02,25,11,29,0.00
2013-11-28,29.3,19.9,12.2,12.8,8.9,5.6,76,62,47,30.45,30.01,21,9,23,0.00
2013-11-29,32.4,22.8,13.3,18.7,12.9,6.6,78,66,46,30.46,30.14,31,17,34,0.01
2013-11-30,44.1,33.0,24.6,27.4,22.8,18.6,80,67,50,30.13,30.00,17,10,21,0.00